createdAt,value
2019-02-05T00:03:08.119Z,102228.91
2019-02-05T00:21:52.915Z,102217.65
2019-02-05T00:26:56.063Z,102224.91
2019-02-05T00:31:44.799Z,102229.70
2019-02-05T00:36:44.305Z,102232.70
2019-02-05T00:41:33.326Z,102231.15
2019-02-05T00:46:30.817Z,102233.59
2019-02-05T00:51:21.199Z,102239.38
2019-02-05T00:56:26.819Z,102242.20
2019-02-05T01:01:18.101Z,102237.94
2019-02-05T01:06:17.817Z,102247.09
2019-02-05T01:11:04.951Z,102243.30
2019-02-05T01:16:01.290Z,102241.61
2019-02-05T01:20:50.786Z,102246.12
2019-02-05T01:25:39.985Z,102250.28
2019-02-05T01:30:29.746Z,102249.83
2019-02-05T01:35:21.255Z,102244.88
2019-02-05T01:40:14.253Z,102253.91
2019-02-05T01:45:23.226Z,102263.34
2019-02-05T01:50:14.146Z,102270.19
2019-02-05T01:55:19.728Z,102271.27
2019-02-05T02:00:08.457Z,102275.67
2019-02-05T02:06:02.923Z,102267.58
2019-02-05T02:11:08.812Z,102268.06
2019-02-05T02:16:12.352Z,102265.02
2019-02-05T02:20:58.417Z,102257.11
2019-02-05T02:25:49.624Z,102256.45
2019-02-05T02:30:41.370Z,102261.97
2019-02-05T02:35:35.345Z,102264.27
2019-02-05T02:40:24.359Z,102263.67
2019-02-05T02:45:16.254Z,102263.37
2019-02-05T02:50:08.279Z,102265.93
2019-02-05T02:55:00.419Z,102267.84
2019-02-05T02:59:52.292Z,102266.83
2019-02-05T03:04:44.288Z,102269.61
2019-02-05T03:09:36.395Z,102278.47
2019-02-05T03:14:28.287Z,102278.38
2019-02-05T03:19:19.981Z,102278.50
2019-02-05T03:24:11.780Z,102270.96
2019-02-05T03:29:03.916Z,102270.30
2019-02-05T03:33:55.942Z,102274.46
2019-02-05T03:38:47.870Z,102273.59
2019-02-05T03:43:41.634Z,102279.30
2019-02-05T03:48:43.308Z,102277.48
2019-02-05T03:53:50.968Z,102282.61
2019-02-05T03:58:56.956Z,102295.56
2019-02-05T04:03:44.617Z,102291.20
2019-02-05T04:08:36.818Z,102296.66
2019-02-05T04:13:26.497Z,102290.48
2019-02-05T04:18:28.734Z,102281.95
2019-02-05T04:23:18.558Z,102280.11
2019-02-05T04:28:24.175Z,102287.22
2019-02-05T04:33:11.786Z,102291.14
2019-02-05T04:38:17.964Z,102292.95
2019-02-05T04:43:22.155Z,102293.23
2019-02-05T04:48:34.969Z,102301.53
2019-02-05T04:53:39.119Z,102311.41
2019-02-05T04:58:39.889Z,102320.83
2019-02-05T05:03:27.932Z,102320.45
2019-02-05T05:08:18.941Z,102309.09
2019-02-05T05:13:12.662Z,102310.42
2019-02-05T05:18:04.118Z,102310.42
2019-02-05T05:22:55.051Z,102307.25
2019-02-05T05:27:47.110Z,102306.73
2019-02-05T05:32:38.781Z,102310.63
2019-02-05T05:37:32.482Z,102315.17
2019-02-05T05:42:25.672Z,102318.30
2019-02-05T05:47:19.021Z,102318.60
2019-02-05T05:52:10.149Z,102328.25
2019-02-05T05:57:04.024Z,102332.91
2019-02-05T06:01:58.515Z,102331.91
2019-02-05T06:06:51.566Z,102333.34
2019-02-05T06:11:42.475Z,102324.70
2019-02-05T06:16:34.471Z,102335.34
2019-02-05T06:21:28.523Z,102342.08
2019-02-05T06:26:22.069Z,102352.53
2019-02-05T06:31:15.463Z,102363.94
2019-02-05T06:36:09.193Z,102365.58
2019-02-05T06:41:02.602Z,102360.38
2019-02-05T06:45:54.055Z,102369.47
2019-02-05T06:50:45.966Z,102375.40
2019-02-05T06:55:35.123Z,102363.20
2019-02-05T07:00:25.585Z,102370.67
2019-02-05T07:05:17.693Z,102383.28
2019-02-05T07:10:09.020Z,102386.84
2019-02-05T07:15:01.281Z,102392.30
2019-02-05T07:19:50.616Z,102396.95
2019-02-05T07:24:38.554Z,102400.52
2019-02-05T07:29:28.167Z,102400.23
2019-02-05T07:34:23.469Z,102402.77
2019-02-05T07:39:14.544Z,102411.28
2019-02-05T07:44:06.631Z,102430.77
2019-02-05T07:49:00.272Z,102432.55
2019-02-05T07:53:50.127Z,102444.08
2019-02-05T07:58:39.410Z,102449.14
2019-02-05T08:03:34.239Z,102457.94
2019-02-05T08:08:26.084Z,102449.08
2019-02-05T08:13:16.230Z,102456.08
2019-02-05T08:18:06.236Z,102461.95
2019-02-05T08:22:56.914Z,102458.02
2019-02-05T08:27:49.154Z,102456.30
2019-02-05T08:32:41.072Z,102458.47
2019-02-05T08:37:32.437Z,102459.41
2019-02-05T08:42:24.215Z,102458.78
2019-02-05T08:47:15.990Z,102473.47
2019-02-05T08:52:07.896Z,102474.16
2019-02-05T08:57:00.263Z,102488.28
2019-02-05T09:01:52.313Z,102482.78
2019-02-05T09:06:44.237Z,102484.80
2019-02-05T09:11:36.197Z,102486.84
2019-02-05T09:16:29.537Z,102492.36
2019-02-05T09:21:21.438Z,102479.61
2019-02-05T09:26:13.434Z,102500.42
2019-02-05T09:31:05.298Z,102500.28
2019-02-05T09:35:57.410Z,102502.22
2019-02-05T09:40:50.480Z,102501.50
2019-02-05T09:45:43.644Z,102506.59
2019-02-05T09:50:46.373Z,102513.21
2019-02-05T09:55:38.411Z,102508.49
2019-02-05T10:00:30.776Z,102515.85
2019-02-05T10:05:22.688Z,102519.40
2019-02-05T10:10:16.497Z,102523.91
2019-02-05T10:14:28.073Z,102534.81
2019-02-05T10:19:20.155Z,102537.78
2019-02-05T10:24:11.961Z,102546.75
2019-02-05T10:29:04.171Z,102550.30
2019-02-05T10:33:57.177Z,102556.02
2019-02-05T10:38:50.594Z,102544.67
2019-02-05T10:43:42.065Z,102540.97
2019-02-05T10:48:33.910Z,102548.95
2019-02-05T10:53:25.950Z,102538.08
2019-02-05T10:58:18.926Z,102540.38
2019-02-05T11:03:10.996Z,102542.33
2019-02-05T11:08:02.832Z,102542.59
2019-02-05T11:12:54.972Z,102532.88
2019-02-05T11:17:46.730Z,102528.95
2019-02-05T11:22:39.567Z,102528.58
2019-02-05T11:27:31.130Z,102521.48
2019-02-05T11:32:23.040Z,102513.02
2019-02-05T11:37:15.086Z,102513.61
2019-02-05T11:42:07.084Z,102507.05
2019-02-05T11:46:59.958Z,102502.50
2019-02-05T11:51:51.509Z,102512.50
2019-02-05T11:56:42.810Z,102515.51
2019-02-05T12:01:40.651Z,102526.58
2019-02-05T12:06:30.905Z,102519.09
2019-02-05T12:11:22.842Z,102522.92
2019-02-05T12:16:12.249Z,102522.51
2019-02-05T12:21:02.548Z,102513.11
2019-02-05T12:25:52.082Z,102515.28
2019-02-05T12:30:46.995Z,102517.30
2019-02-05T12:35:36.654Z,102513.65
2019-02-05T12:40:28.753Z,102510.97
2019-02-05T12:45:21.613Z,102511.09
2019-02-05T12:50:11.368Z,102510.23
2019-02-05T12:55:16.865Z,102511.13
2019-02-05T13:00:06.271Z,102503.92
2019-02-05T13:04:58.212Z,102505.28
2019-02-05T13:09:47.725Z,102502.62
2019-02-05T13:14:39.159Z,102504.17
2019-02-05T13:19:30.311Z,102502.48
2019-02-05T13:24:21.285Z,102504.43
2019-02-05T13:29:13.461Z,102504.41
2019-02-05T13:34:02.669Z,102498.42
2019-02-05T13:38:52.727Z,102499.78
2019-02-05T13:43:44.239Z,102496.62
2019-02-05T13:48:35.375Z,102501.98
2019-02-05T13:53:25.813Z,102506.28
2019-02-05T13:58:15.703Z,102497.89
2019-02-05T14:03:05.567Z,102503.85
2019-02-05T14:07:56.285Z,102506.53
2019-02-05T14:12:45.656Z,102508.09
2019-02-05T14:17:35.916Z,102508.20
2019-02-05T14:22:26.563Z,102507.59
2019-02-05T14:27:16.875Z,102505.39
2019-02-05T14:32:06.461Z,102501.64
2019-02-05T14:36:56.529Z,102501.70
2019-02-05T14:41:48.104Z,102500.70
2019-02-05T14:46:40.755Z,102496.83
2019-02-05T14:51:32.568Z,102495.10
2019-02-05T14:56:22.019Z,102494.70
2019-02-05T15:01:14.551Z,102498.95
2019-02-05T15:06:02.925Z,102493.77
2019-02-05T15:10:53.104Z,102485.37
2019-02-05T15:15:45.529Z,102492.06
2019-02-05T15:20:35.170Z,102485.20
2019-02-05T15:25:25.029Z,102473.33
2019-02-05T15:30:17.706Z,102472.88
2019-02-05T15:35:10.810Z,102480.70
2019-02-05T15:40:02.022Z,102472.27
2019-02-05T15:44:53.263Z,102485.08
2019-02-05T15:49:53.059Z,102484.18
2019-02-05T15:54:40.923Z,102473.80
2019-02-05T15:59:32.719Z,102483.89
2019-02-05T16:04:38.991Z,102492.14
2019-02-05T16:09:34.476Z,102484.25
2019-02-05T16:14:24.220Z,102483.23
2019-02-05T16:19:15.329Z,102491.64
2019-02-05T16:24:05.571Z,102487.03
2019-02-05T16:28:56.212Z,102477.09
2019-02-05T16:33:48.593Z,102491.72
2019-02-05T16:38:39.686Z,102490.43
2019-02-05T16:43:37.501Z,102490.16
2019-02-05T16:48:26.178Z,102491.58
2019-02-05T16:53:32.693Z,102488.78
2019-02-05T16:58:21.572Z,102486.91
2019-02-05T17:03:13.824Z,102494.08
2019-02-05T17:10:22.868Z,102503.14
2019-02-05T17:15:06.840Z,102509.54
2019-02-05T17:19:55.359Z,102499.84
2019-02-05T17:24:44.633Z,102505.50
2019-02-05T17:29:33.462Z,102505.50
2019-02-05T17:34:33.284Z,102502.42
2019-02-05T17:39:21.335Z,102503.24
2019-02-05T17:44:12.357Z,102497.45
2019-02-05T17:49:03.631Z,102495.47
2019-02-05T17:53:52.412Z,102484.55
2019-02-05T17:58:40.271Z,102481.28
2019-02-05T18:03:31.204Z,102486.12
2019-02-05T18:08:30.557Z,102484.72
2019-02-05T18:13:29.226Z,102483.86
2019-02-05T18:18:18.405Z,102482.71
2019-02-05T18:23:08.029Z,102485.72
2019-02-05T18:28:07.637Z,102473.03
2019-02-05T18:33:07.089Z,102465.00
2019-02-05T18:38:11.909Z,102461.58
2019-02-05T18:43:01.129Z,102456.03
2019-02-05T18:50:11.694Z,102440.05
2019-02-05T18:54:57.041Z,102443.62
2019-02-05T18:59:45.655Z,102434.30
2019-02-05T19:04:43.512Z,102424.11
2019-02-05T19:09:31.408Z,102427.33
2019-02-05T19:14:24.796Z,102428.82
2019-02-05T19:19:17.286Z,102413.92
2019-02-05T19:24:16.426Z,102406.63
2019-02-05T19:29:06.289Z,102411.91
2019-02-05T19:39:28.172Z,102418.38
2019-02-05T19:44:18.001Z,102419.87
2019-02-05T19:49:08.320Z,102424.44
2019-02-05T19:54:00.058Z,102421.55
2019-02-05T19:58:51.625Z,102419.86
2019-02-05T20:03:40.903Z,102412.66
2019-02-05T20:08:33.063Z,102412.55
2019-02-05T20:13:22.472Z,102415.00
2019-02-05T20:18:22.185Z,102414.48
2019-02-05T20:23:11.492Z,102412.07
2019-02-05T20:28:17.039Z,102410.13
2019-02-05T20:33:07.264Z,102410.41
2019-02-05T20:37:58.661Z,102418.52
2019-02-05T20:42:50.199Z,102416.87
2019-02-05T20:47:39.581Z,102416.08
2019-02-05T20:52:27.916Z,102415.00
2019-02-05T20:57:19.896Z,102424.47
2019-02-05T21:02:10.829Z,102417.08
2019-02-05T21:07:02.073Z,102425.36
2019-02-05T21:11:53.350Z,102429.22
2019-02-05T21:16:42.094Z,102423.86
2019-02-05T21:21:33.741Z,102419.48
2019-02-05T21:26:25.719Z,102422.56
2019-02-05T21:31:17.634Z,102430.54
2019-02-05T21:36:10.090Z,102425.11
2019-02-05T21:41:02.183Z,102426.50
2019-02-05T21:45:55.492Z,102431.67
2019-02-05T21:50:47.356Z,102432.22
2019-02-05T21:55:39.236Z,102414.74
2019-02-05T22:00:31.080Z,102413.19
2019-02-05T22:05:23.488Z,102406.97
2019-02-05T22:10:17.401Z,102406.36
2019-02-05T22:15:11.275Z,102406.52
2019-02-05T22:20:02.866Z,102412.14
2019-02-05T22:24:54.641Z,102417.89
2019-02-05T22:29:48.414Z,102416.37
2019-02-05T22:34:41.886Z,102405.34
2019-02-05T22:39:33.193Z,102407.38
2019-02-05T22:44:26.274Z,102402.40
2019-02-05T22:49:19.644Z,102410.96
2019-02-05T22:54:12.331Z,102408.66
2019-02-05T22:59:03.795Z,102406.36
2019-02-05T23:03:55.578Z,102412.23
2019-02-05T23:08:48.741Z,102412.42
2019-02-05T23:13:40.418Z,102403.37
2019-02-05T23:18:32.420Z,102394.19
2019-02-05T23:23:24.357Z,102390.54
2019-02-05T23:28:16.370Z,102392.64
2019-02-05T23:33:08.238Z,102394.17
2019-02-05T23:38:00.069Z,102387.52
2019-02-05T23:42:51.979Z,102383.27
2019-02-05T23:47:43.865Z,102378.87
2019-02-05T23:52:36.584Z,102385.20
2019-02-05T23:57:28.537Z,102382.78
